Aérodrome :
LOGIN :

S'inscrire | Disclaimer

   EN    FR    IT 

 










Légende :    VFR   VFR Marginal   IFR   IFR Intensif   IFR Très Intensif
Visi : 
Plafond : 
>= 8 km
>= 3000ft
5 à 8 km
1000 à 3000 ft
1500m à 5 km
500 à 1000 ft
800 à 1500m
200 à 500 ft
< 800m
< 200 ft
Symboles :   Orages  Brouillard  Fortes neiges  Fortes précipitations  Vent > 20 kt
SIGMETs :   Divers  Orages  Givrage  Turbulence  Onde Orograph.  Cendres Volcan.







- Altitude de l'aérodrome : 7 ft
- Code IATA : XHE
- Voir les cartes d'approche


LFTH - Hyeres

DERNIER METAR :
  • 200800Z AUTO 35003KT CAVOK 05/04 Q1012 BECMG 08010KT

METARs EXPIRÉS :
  • 200730Z AUTO 33004KT CAVOK 04/03 Q1012 BECMG 08010KT
  • 200700Z AUTO 33004KT CAVOK 04/03 Q1012 NOSIG
  • 200630Z AUTO 33003KT CAVOK 04/03 Q1012 NOSIG
  • 200600Z AUTO 33004KT CAVOK 04/03 Q1011 NOSIG
  • 200530Z AUTO 31005KT CAVOK 05/04 Q1011 NOSIG

TAF TAF LFTH
Valide du 20 à 03h jusqu'au 21 à 03h UTC


200200Z 2003/2103 36010KT 9999 BKN030
TEMPO 2003/2006 4000 SHRA FEW030TCU
BECMG 2009/2011 08010KT
TEMPO 2012/2018 SHRA SCT030TCU
BECMG 2018/2020 36010KT NSC
Pas de NOTAMs connus pour ce terrain.



MET'MAP, la Météo Aéronautique d'un coup d'oeil ! - Copyright ORBIFLY Décembre 2007 - Disclaimer

ORBIFLY MET'MAP TEAM :

Programmation & Développement : Alexandra Zaïnal
Conception & Développement : Baudouin d'Aumeries
Co-Programmation & Développement : Marc-Olivier Méhu
Soutien technique & logistique : Manuel Goepfert

Contact : metmap@orbifly.com




SOURCES & CREDITS :

   NOAA